createdAt,value
2023-05-10T00:01:56.649Z,6.58
2023-05-10T00:12:02.473Z,6.49
2023-05-10T00:22:08.331Z,6.40
2023-05-10T00:32:15.073Z,6.26
2023-05-10T00:42:21.116Z,6.17
2023-05-10T00:52:27.349Z,6.09
2023-05-10T01:02:33.089Z,6.00
2023-05-10T01:12:41.408Z,5.91
2023-05-10T01:23:06.552Z,5.81
2023-05-10T01:33:19.176Z,5.74
2023-05-10T01:43:28.641Z,5.66
2023-05-10T01:53:35.590Z,5.59
2023-05-10T02:03:43.514Z,5.58
2023-05-10T02:13:51.312Z,5.49
2023-05-10T02:23:59.143Z,5.44
2023-05-10T02:34:06.222Z,5.37
2023-05-10T02:44:12.728Z,5.33
2023-05-10T02:54:23.032Z,5.32
2023-05-10T03:04:28.795Z,5.29
2023-05-10T03:14:47.580Z,5.29
2023-05-10T03:24:55.920Z,5.35
2023-05-10T03:35:01.506Z,5.46
2023-05-10T03:45:09.177Z,5.62
2023-05-10T03:55:13.284Z,5.77
2023-05-10T04:05:19.169Z,5.98
2023-05-10T04:15:25.170Z,6.83
2023-05-10T04:25:31.183Z,13.01
2023-05-10T04:35:36.918Z,14.32
2023-05-10T04:45:42.739Z,10.53
2023-05-10T04:55:49.164Z,12.49
2023-05-10T05:05:54.858Z,20.06
2023-05-10T05:16:02.456Z,23.67
2023-05-10T05:26:08.232Z,25.87
2023-05-10T05:36:14.012Z,27.36
2023-05-10T05:46:19.735Z,27.65
2023-05-10T05:56:26.141Z,29.82
2023-05-10T06:06:33.225Z,32.22
2023-05-10T06:16:39.010Z,34.28
2023-05-10T06:26:44.678Z,34.72
2023-05-10T06:36:50.562Z,34.22
2023-05-10T06:46:56.935Z,35.52
2023-05-10T06:57:08.845Z,36.04
2023-05-10T07:07:18.873Z,37.25
2023-05-10T07:17:24.730Z,37.93
2023-05-10T07:27:30.672Z,39.45
2023-05-10T07:37:37.075Z,40.95
2023-05-10T07:47:42.745Z,40.73
2023-05-10T07:57:48.827Z,38.93
2023-05-10T08:07:54.873Z,39.20
2023-05-10T08:18:00.663Z,30.02
2023-05-10T08:28:06.539Z,23.83
2023-05-10T08:38:13.845Z,20.79
2023-05-10T08:48:20.646Z,19.15
2023-05-10T08:58:27.586Z,18.23
2023-05-10T09:08:33.629Z,17.97
2023-05-10T09:18:39.418Z,17.81
2023-05-10T09:28:57.118Z,17.76
2023-05-10T09:39:03.093Z,17.49
2023-05-10T09:49:09.247Z,17.44
2023-05-10T09:59:15.703Z,17.36
2023-05-10T10:09:21.742Z,17.14
2023-05-10T10:19:27.614Z,16.90
2023-05-10T10:29:41.481Z,16.82
2023-05-10T10:39:50.652Z,16.53
2023-05-10T10:50:07.128Z,16.35
2023-05-10T11:00:33.441Z,16.53
2023-05-10T11:10:39.847Z,16.48
2023-05-10T11:20:47.912Z,16.59
2023-05-10T11:30:54.555Z,16.66
2023-05-10T11:41:00.365Z,16.65
2023-05-10T11:51:06.254Z,16.61
2023-05-10T12:01:12.889Z,16.46
2023-05-10T12:11:18.750Z,16.59
2023-05-10T12:21:25.203Z,16.80
2023-05-10T12:31:30.990Z,16.76
2023-05-10T12:41:36.937Z,16.82
2023-05-10T12:51:42.694Z,17.02
2023-05-10T13:01:48.364Z,17.03
2023-05-10T13:11:55.326Z,17.02
2023-05-10T13:22:01.204Z,17.04
2023-05-10T13:32:07.980Z,17.20
2023-05-10T13:42:13.856Z,17.16
2023-05-10T13:52:19.876Z,16.90
2023-05-10T14:02:28.705Z,16.95
2023-05-10T14:12:35.284Z,16.94
2023-05-10T14:22:41.511Z,16.99
2023-05-10T14:32:47.194Z,17.04
2023-05-10T14:42:54.370Z,17.13
2023-05-10T14:53:36.733Z,17.03
2023-05-10T15:03:43.199Z,17.02
2023-05-10T15:13:50.847Z,17.03
2023-05-10T15:23:56.601Z,17.03
2023-05-10T15:34:02.659Z,16.99
2023-05-10T15:44:08.351Z,16.94
2023-05-10T15:54:14.269Z,16.83
2023-05-10T16:04:20.981Z,16.74
2023-05-10T16:14:26.857Z,16.65
2023-05-10T16:24:32.893Z,16.55
2023-05-10T16:34:39.729Z,16.44
2023-05-10T16:44:45.427Z,16.32
2023-05-10T16:54:51.398Z,16.42
2023-05-10T17:04:57.364Z,17.35
2023-05-10T17:15:02.984Z,16.44
2023-05-10T17:25:11.321Z,16.25
2023-05-10T17:35:17.359Z,15.91
2023-05-10T17:45:23.930Z,15.42
2023-05-10T17:55:30.842Z,14.99
2023-05-10T18:05:39.757Z,14.64
2023-05-10T18:15:45.972Z,14.27
2023-05-10T18:25:52.001Z,13.92
2023-05-10T18:35:57.754Z,13.61
2023-05-10T18:46:03.473Z,13.25
2023-05-10T18:56:09.996Z,12.96
2023-05-10T19:06:15.619Z,12.67
2023-05-10T19:16:23.446Z,12.54
2023-05-10T19:26:29.542Z,12.39
2023-05-10T19:36:36.046Z,12.20
2023-05-10T19:46:41.991Z,11.97
2023-05-10T19:56:47.972Z,11.69
2023-05-10T20:06:53.763Z,11.38
2023-05-10T20:16:59.664Z,11.15
2023-05-10T20:27:05.705Z,10.87
2023-05-10T20:37:11.345Z,10.67
2023-05-10T20:47:18.456Z,10.43
2023-05-10T20:57:24.234Z,10.22
2023-05-10T21:07:32.386Z,10.03
2023-05-10T21:17:38.125Z,9.89
2023-05-10T21:27:43.798Z,9.82
2023-05-10T21:37:49.510Z,9.71
2023-05-10T21:47:55.808Z,9.60
2023-05-10T21:58:01.475Z,9.55
2023-05-10T22:08:08.161Z,9.55
2023-05-10T22:18:13.851Z,9.44
2023-05-10T22:28:19.639Z,9.30
2023-05-10T22:38:25.659Z,9.20
2023-05-10T22:48:32.961Z,9.03
2023-05-10T22:58:38.776Z,8.90
2023-05-10T23:08:44.668Z,8.78
2023-05-10T23:18:50.575Z,8.67
2023-05-10T23:28:56.317Z,8.58
2023-05-10T23:39:01.946Z,8.45
2023-05-10T23:49:07.792Z,8.30
2023-05-10T23:59:13.488Z,8.13
